createdAt,value
2023-02-22T00:02:34.565Z,5.07
2023-02-22T00:07:35.808Z,5.07
2023-02-22T00:12:37.803Z,5.09
2023-02-22T00:17:39.998Z,5.03
2023-02-22T00:22:42.047Z,5.05
2023-02-22T00:27:43.870Z,5.03
2023-02-22T00:32:45.835Z,5
2023-02-22T00:37:47.639Z,4.96
2023-02-22T00:42:49.671Z,4.96
2023-02-22T00:47:50.897Z,4.98
2023-02-22T00:52:52.979Z,5
2023-02-22T00:57:54.640Z,4.92
2023-02-22T01:02:56.049Z,4.91
2023-02-22T01:07:57.780Z,4.88
2023-02-22T01:12:59.286Z,4.86
2023-02-22T01:18:01.358Z,4.86
2023-02-22T01:23:03.492Z,4.86
2023-02-22T01:28:05.681Z,4.83
2023-02-22T01:33:06.796Z,4.82
2023-02-22T01:38:08.402Z,4.79
2023-02-22T01:43:09.870Z,4.78
2023-02-22T01:48:12.016Z,4.78
2023-02-22T01:53:14.110Z,4.8
2023-02-22T01:58:16.035Z,4.84
2023-02-22T02:03:17.437Z,4.84
2023-02-22T02:08:19.429Z,4.86
2023-02-22T02:13:21.617Z,4.92
2023-02-22T02:18:22.960Z,4.92
2023-02-22T02:23:24.327Z,4.87
2023-02-22T02:28:26.184Z,4.85
2023-02-22T02:33:27.772Z,4.82
2023-02-22T02:38:29.160Z,4.79
2023-02-22T02:43:31.243Z,4.78
2023-02-22T02:48:33.136Z,4.76
2023-02-22T02:53:34.361Z,4.77
2023-02-22T02:58:35.915Z,4.77
2023-02-22T03:03:37.882Z,4.8
2023-02-22T03:08:39.151Z,4.85
2023-02-22T03:13:40.975Z,4.87
2023-02-22T03:18:42.945Z,4.87
2023-02-22T03:23:44.972Z,4.87
2023-02-22T03:28:46.423Z,4.87
2023-02-22T03:33:47.644Z,4.85
2023-02-22T03:38:49.021Z,4.82
2023-02-22T03:43:50.545Z,4.79
2023-02-22T03:48:52.438Z,4.79
2023-02-22T03:53:53.865Z,4.8
2023-02-22T03:58:55.863Z,4.78
2023-02-22T04:03:57.164Z,4.71
2023-02-22T04:08:59.326Z,4.67
2023-02-22T04:14:01.511Z,4.64
2023-02-22T04:19:03.151Z,4.59
2023-02-22T04:24:04.793Z,4.55
2023-02-22T04:29:06.697Z,4.55
2023-02-22T04:34:08.794Z,4.48
2023-02-22T04:39:10.484Z,4.44
2023-02-22T04:44:11.776Z,4.41
2023-02-22T04:49:13.826Z,4.41
2023-02-22T04:54:21.970Z,4.44
2023-02-22T04:59:23.529Z,4.44
2023-02-22T05:04:25.594Z,4.4
2023-02-22T05:09:27.047Z,4.3
2023-02-22T05:14:29.056Z,4.21
2023-02-22T05:19:31.217Z,4.09
2023-02-22T05:24:32.684Z,3.99
2023-02-22T05:29:34.381Z,3.97
2023-02-22T05:34:36.500Z,3.97
2023-02-22T05:39:38.379Z,3.97
2023-02-22T05:44:39.667Z,3.96
2023-02-22T05:49:41.820Z,3.92
2023-02-22T05:54:43.313Z,3.83
2023-02-22T05:59:44.576Z,3.73
2023-02-22T06:04:46.130Z,3.7
2023-02-22T06:09:47.807Z,3.69
2023-02-22T06:14:49.770Z,3.63
2023-02-22T06:19:50.995Z,3.66
2023-02-22T06:24:54.926Z,3.69
2023-02-22T06:29:54.712Z,3.71
2023-02-22T06:44:58.997Z,3.78
2023-02-22T07:00:04.957Z,3.9
2023-02-22T07:05:06.679Z,3.91
2023-02-22T07:15:17.725Z,3.99
2023-02-22T07:25:13.445Z,4.11
2023-02-22T07:35:16.033Z,4.39
2023-02-22T07:45:19.649Z,4.75
2023-02-22T07:55:23.622Z,5.21
2023-02-22T08:00:25.702Z,5.45
2023-02-22T08:05:27.827Z,5.7
2023-02-22T08:10:29.394Z,5.96
2023-02-22T08:15:31.374Z,6.25
2023-02-22T08:20:33.091Z,6.51
2023-02-22T08:25:34.516Z,6.81
2023-02-22T08:30:38.966Z,7.1
2023-02-22T08:35:38.300Z,7.42
2023-02-22T08:40:40.190Z,7.72
2023-02-22T08:45:41.497Z,8.04
2023-02-22T08:50:42.886Z,8.34
2023-02-22T08:55:44.483Z,8.62
2023-02-22T09:00:46.086Z,8.91
2023-02-22T09:05:48.258Z,9.22
2023-02-22T09:10:49.606Z,9.56
2023-02-22T09:15:52.041Z,9.89
2023-02-22T09:20:53.756Z,10.22
2023-02-22T09:25:55.622Z,10.59
2023-02-22T09:30:57.409Z,10.94
2023-02-22T09:35:59.269Z,11.27
2023-02-22T09:41:01.450Z,11.58
2023-02-22T09:46:03.693Z,11.89
2023-02-22T09:51:05.484Z,12.21
2023-02-22T09:56:07.082Z,12.48
2023-02-22T10:01:09.088Z,12.73
2023-02-22T10:06:11.123Z,12.98
2023-02-22T10:11:12.307Z,13.24
2023-02-22T10:16:13.864Z,13.46
2023-02-22T10:21:15.652Z,13.67
2023-02-22T10:26:17.593Z,13.89
2023-02-22T10:31:19.474Z,14.13
2023-02-22T10:36:20.573Z,14.35
2023-02-22T10:41:22.586Z,14.56
2023-02-22T10:46:24.008Z,14.77
2023-02-22T10:51:25.593Z,14.95
2023-02-22T10:56:27.375Z,15.12
2023-02-22T11:01:28.944Z,15.3
2023-02-22T11:06:30.404Z,15.47
2023-02-22T11:11:32.165Z,15.62
2023-02-22T11:16:34.327Z,15.79
2023-02-22T11:21:36.019Z,15.94
2023-02-22T11:26:37.268Z,16.06
2023-02-22T11:31:38.546Z,16.19
2023-02-22T11:36:40.130Z,16.33
2023-02-22T11:41:41.493Z,16.48
2023-02-22T11:46:42.696Z,16.62
2023-02-22T11:51:44.590Z,16.78
2023-02-22T11:56:46.733Z,16.92
2023-02-22T12:01:56.593Z,17.04
2023-02-22T12:06:50.454Z,17.16
2023-02-22T12:11:52.557Z,17.21
2023-02-22T12:16:54.386Z,17.32
2023-02-22T12:21:55.904Z,17.37
2023-02-22T12:26:57.441Z,17.44
2023-02-22T12:31:59.205Z,17.53
2023-02-22T12:37:01.386Z,17.59
2023-02-22T12:42:02.644Z,17.68
2023-02-22T12:47:04.326Z,17.78
2023-02-22T12:52:20.499Z,17.9
2023-02-22T12:57:07.825Z,18.04
2023-02-22T13:02:09.637Z,18.4
2023-02-22T13:07:11.738Z,18.7
2023-02-22T13:12:13.093Z,19.04
2023-02-22T13:17:14.411Z,19.1
2023-02-22T13:22:16.603Z,19.51
2023-02-22T13:27:17.845Z,20.12
2023-02-22T13:32:19.407Z,20.76
2023-02-22T13:37:21.406Z,21.49
2023-02-22T13:42:22.898Z,21.86
2023-02-22T13:47:24.448Z,22.47
2023-02-22T13:52:26.323Z,22.46
2023-02-22T13:57:27.648Z,22.37
2023-02-22T14:02:29.365Z,22.11
2023-02-22T14:07:31.141Z,22.11
2023-02-22T14:12:32.822Z,22.18
2023-02-22T14:17:34.484Z,21.77
2023-02-22T14:22:35.915Z,21.3
2023-02-22T14:27:37.286Z,20.95
2023-02-22T14:32:38.610Z,20.66
2023-02-22T14:37:39.829Z,20.28
2023-02-22T14:42:41.507Z,19.79
2023-02-22T14:47:43.307Z,19.68
2023-02-22T14:52:44.972Z,19.82
2023-02-22T14:57:46.774Z,19.83
2023-02-22T15:02:48.917Z,19.61
2023-02-22T15:07:50.573Z,19.29
2023-02-22T15:12:52.012Z,19.08
2023-02-22T15:17:53.509Z,18.92
2023-02-22T15:22:55.386Z,18.81
2023-02-22T15:27:57.232Z,18.57
2023-02-22T15:33:04.297Z,18.17
2023-02-22T15:38:00.721Z,17.76
2023-02-22T15:43:02.570Z,17.51
2023-02-22T15:48:04.518Z,17.33
2023-02-22T15:53:06.078Z,17.04
2023-02-22T15:58:07.918Z,16.41
2023-02-22T16:03:10.091Z,16.17
2023-02-22T16:08:12.115Z,16.01
2023-02-22T16:13:22.296Z,15.74
2023-02-22T16:18:14.911Z,15.38
2023-02-22T16:23:16.828Z,15.17
2023-02-22T16:28:18.319Z,14.95
2023-02-22T16:33:20.209Z,14.67
2023-02-22T16:38:22.185Z,14.46
2023-02-22T16:43:23.296Z,14.18
2023-02-22T16:48:25.302Z,13.9
2023-02-22T16:53:27.091Z,13.54
2023-02-22T16:58:28.247Z,13.3
2023-02-22T17:03:29.804Z,13.08
2023-02-22T17:08:31.221Z,12.9
2023-02-22T17:13:32.533Z,12.65
2023-02-22T17:18:34.454Z,12.11
2023-02-22T17:23:36.074Z,11.76
2023-02-22T17:28:37.284Z,11.64
2023-02-22T17:33:38.975Z,11.42
2023-02-22T17:38:40.550Z,11.22
2023-02-22T17:43:42.006Z,11.08
2023-02-22T17:48:43.851Z,10.87
2023-02-22T17:53:45.820Z,10.53
2023-02-22T17:58:47.222Z,10.39
2023-02-22T18:03:48.759Z,10.21
2023-02-22T18:08:50.939Z,10.08
2023-02-22T18:13:52.463Z,9.81
2023-02-22T18:18:53.736Z,9.59
2023-02-22T18:23:55.719Z,9.52
2023-02-22T18:28:57.613Z,9.25
2023-02-22T18:33:58.879Z,9.12
2023-02-22T18:39:00.910Z,9.06
2023-02-22T18:44:02.671Z,8.93
2023-02-22T18:49:04.565Z,8.84
2023-02-22T18:54:05.932Z,8.77
2023-02-22T18:59:08.048Z,8.68
2023-02-22T19:04:10.064Z,8.66
2023-02-22T19:09:11.602Z,8.63
2023-02-22T19:14:13.526Z,8.6
2023-02-22T19:19:15.078Z,8.56
2023-02-22T19:24:16.882Z,8.5
2023-02-22T19:29:18.509Z,8.41
2023-02-22T19:34:20.207Z,8.38
2023-02-22T19:44:22.907Z,8.22
2023-02-22T19:54:26.070Z,8.12
2023-02-22T19:59:27.307Z,7.98
2023-02-22T20:04:28.911Z,7.89
2023-02-22T20:09:30.473Z,7.81
2023-02-22T20:14:31.689Z,7.69
2023-02-22T20:19:33.661Z,7.58
2023-02-22T20:24:35.466Z,7.59
2023-02-22T20:29:36.832Z,7.58
2023-02-22T20:34:38.739Z,7.52
2023-02-22T20:39:40.176Z,7.5
2023-02-22T20:44:41.451Z,7.48
2023-02-22T20:49:43.565Z,7.38
2023-02-22T20:54:45.439Z,7.23
2023-02-22T20:59:46.800Z,7.28
2023-02-22T21:04:48.161Z,7.38
2023-02-22T21:09:49.728Z,7.56
2023-02-22T21:14:51.099Z,7.65
2023-02-22T21:50:08.485Z,7.7
2023-02-22T21:55:10.585Z,7.74
2023-02-22T22:00:12.179Z,7.77
2023-02-22T22:05:13.396Z,7.78
2023-02-22T22:10:15.308Z,7.8
2023-02-22T22:25:20.799Z,8.13
2023-02-22T22:30:22.431Z,8.24
2023-02-22T22:35:23.726Z,8.33
2023-02-22T22:40:25.825Z,8.42
2023-02-22T22:45:27.573Z,8.47
2023-02-22T22:50:28.849Z,8.53
2023-02-22T22:55:30.455Z,8.6
2023-02-22T23:15:38.185Z,8.74
2023-02-22T23:20:39.595Z,8.75
2023-02-22T23:25:41.441Z,8.75
2023-02-22T23:30:42.963Z,8.72
2023-02-22T23:35:44.507Z,8.72
2023-02-22T23:40:46.275Z,8.76
2023-02-22T23:45:47.919Z,8.8
2023-02-22T23:50:49.736Z,8.85
2023-02-22T23:55:51.745Z,8.87
